Date,TemperatureHighF,TemperatureAvgF,TemperatureLowF,DewpointHighF,DewpointAvgF,DewpointLowF,HumidityHigh,HumidityAvg,HumidityLow,PressureMaxIn,PressureMinIn,WindSpeedMaxMPH,WindSpeedAvgMPH,GustSpeedMaxMPH,PrecipitationSumIn
2012-12-1,79.3,72.7,69.0,71.5,69.1,67.6,96,89,75,30.13,30.04,11,6,20,0.00
2012-12-2,79.0,71.9,67.8,70.4,68.2,66.7,97,89,73,30.15,30.06,10,5,18,0.01
2012-12-3,78.7,71.9,66.4,70.5,67.9,65.8,98,88,69,30.07,29.97,9,4,20,0.02
2012-12-4,80.5,72.3,65.2,72.6,69.1,63.6,97,90,72,30.15,30.01,8,4,14,1.24
2012-12-5,74.3,63.6,54.4,64.2,56.8,49.8,97,81,50,30.21,30.04,5,2,11,0.01
2012-12-6,72.7,61.2,49.4,66.0,58.6,48.6,98,92,65,30.04,29.86,7,2,11,0.02
2012-12-7,78.5,71.5,66.9,70.3,67.9,66.0,97,89,73,29.88,29.77,9,4,20,0.02
2012-12-8,78.8,72.8,69.1,71.3,69.2,67.8,96,89,77,29.89,29.80,10,5,19,0.00
2012-12-9,77.6,72.8,69.7,72.5,70.3,68.4,96,92,81,29.91,29.77,8,4,16,0.00
2012-12-10,71.9,54.8,45.3,70.5,38.1,22.8,97,57,31,30.12,29.79,12,5,26,0.00
2012-12-11,51.9,46.5,40.5,33.1,28.7,23.6,62,50,36,30.23,30.08,7,3,15,0.00
2012-12-12,60.2,48.3,34.8,42.8,35.3,21.9,90,63,27,30.33,30.22,5,2,13,0.00
2012-12-13,67.8,58.5,43.1,60.8,52.0,40.3,95,80,57,30.28,30.15,7,3,18,0.00
2012-12-14,74.1,69.7,66.4,67.2,64.8,60.8,90,84,76,30.15,29.91,9,6,20,0.00
2012-12-15,75.0,71.1,68.1,71.4,69.0,66.9,97,93,88,29.95,29.83,8,4,18,0.00
2012-12-16,78.1,71.2,65.0,72.4,68.5,57.0,98,92,75,29.86,29.72,8,3,16,0.00
2012-12-17,76.7,65.4,55.4,57.0,47.3,33.8,92,57,23,29.99,29.83,7,2,14,0.00
2012-12-18,75.3,66.7,57.0,68.5,62.5,55.9,98,87,69,29.96,29.82,11,5,23,0.01
2012-12-19,75.6,71.7,68.9,71.0,69.3,67.6,96,92,84,29.83,29.68,11,7,25,0.00
2012-12-20,71.0,56.4,40.1,69.3,25.8,9.0,97,35,15,30.49,29.78,12,6,28,0.00
2012-12-21,55.9,45.6,31.3,35.1,23.1,11.8,58,42,23,30.55,30.36,3,2,8,0.00
2012-12-22,72.2,61.7,46.4,61.9,52.7,34.8,92,73,57,30.36,30.11,9,4,17,0.00
2012-12-23,74.5,68.1,63.1,66.2,63.6,61.0,93,86,73,30.11,29.90,10,5,19,0.00
2012-12-24,75.3,67.8,60.9,67.3,64.5,59.6,98,90,74,29.95,29.72,7,4,15,0.00
2012-12-25,78.7,66.6,39.3,67.8,47.2,23.7,95,59,14,30.14,29.61,13,8,29,0.00
2012-12-26,50.6,40.6,31.8,36.5,27.6,21.1,80,60,44,30.29,30.11,7,3,20,0.00
2012-12-27,55.2,50.8,45.0,52.2,46.2,36.2,94,84,71,30.11,29.79,6,3,13,0.01
2012-12-28,71.7,57.9,44.9,56.5,46.1,34.6,97,69,30,30.18,29.76,8,4,19,0.00
2012-12-29,52.7,44.1,34.3,34.8,26.8,22.8,73,52,32,30.47,30.18,7,4,18,0.00
2012-12-30,64.8,52.7,37.5,60.1,43.5,27.8,89,71,63,30.44,30.15,9,4,17,0.00
2012-12-31,70.7,66.9,63.3,66.4,64.0,59.7,96,90,85,30.15,29.90,7,4,15,0.01